WMSA/SZB METAR and TAF weather

Enter ICAO airport designator
Station Type Date Time Source
WMSA METAR 2019/02/23 23:00 UTC NOAA

WMSA 232300Z 00000KT 7000 FEW025 BKN280 25/24 Q1010


Station Type Date Time Source
WMSA Decoded METAR 2019/02/23 23:00 UTC NOAA

Subang/Sultan Abdul Aziz Shah Airport, Malaysia (WMSA) 03-07N 101-32E
Feb 23, 2019 - 06:00 PM EST / 2019.02.23 2300 UTC
Wind: Calm:0
Visibility: 4 mile(s):0
Sky conditions: mostly cloudy
Temperature: 77 F (25 C)
Dew Point: 75 F (24 C)
Relative Humidity: 94%
Pressure (altimeter): 29.83 in. Hg (1010 hPa)
ob: WMSA 232300Z 00000KT 7000 FEW025 BKN280 25/24 Q1010
cycle: 23

Station Type Date Time Source
WMSA TAF 2019/02/23 18:09 UTC NOAA

TAF WMSA 231700Z 2318/2418 VRB01KT 9999 FEW025
BECMG 2322/2323 VRB02KT FEW024
BECMG 2400/2402 07005KT FEW018


Example: see airport list